createdAt,value
2018-11-05T00:00:50.346Z,62.21
2018-11-05T00:01:50.370Z,62.69
2018-11-05T00:02:50.360Z,61.83
2018-11-05T00:03:50.362Z,62.49
2018-11-05T00:04:50.345Z,62.40
2018-11-05T00:05:50.379Z,62.12
2018-11-05T00:06:50.352Z,61.93
2018-11-05T00:07:50.348Z,61.16
2018-11-05T00:08:50.343Z,60.60
2018-11-05T00:09:50.389Z,60.21
2018-11-05T00:10:50.348Z,60.88
2018-11-05T00:11:50.362Z,60.69
2018-11-05T00:12:50.346Z,60.97
2018-11-05T00:13:50.372Z,61.26
2018-11-05T00:14:50.359Z,61.45
2018-11-05T00:15:50.363Z,62.02
2018-11-05T00:16:50.354Z,62.40
2018-11-05T00:17:50.351Z,62.88
2018-11-05T00:18:50.353Z,63.54
2018-11-05T00:19:50.339Z,63.54
2018-11-05T00:20:50.342Z,63.73
2018-11-05T00:21:50.349Z,63.64
2018-11-05T00:22:50.346Z,63.64
2018-11-05T00:23:50.348Z,63.64
2018-11-05T00:24:50.353Z,63.83
2018-11-05T00:25:50.357Z,63.83
2018-11-05T00:26:50.348Z,63.83
2018-11-05T00:27:50.339Z,63.64
2018-11-05T00:28:50.332Z,63.92
2018-11-05T00:29:50.332Z,64.53
2018-11-05T00:30:50.348Z,63.86
2018-11-05T00:31:50.342Z,63.83
2018-11-05T00:32:50.346Z,63.96
2018-11-05T00:33:50.349Z,64.90
2018-11-05T00:34:50.370Z,64.72
2018-11-05T00:35:50.366Z,64.43
2018-11-05T00:36:50.330Z,64.81
2018-11-05T00:37:50.350Z,64.40
2018-11-05T00:38:50.334Z,64.43
2018-11-05T00:39:50.337Z,64.31
2018-11-05T00:40:50.342Z,64.69
2018-11-05T00:41:50.348Z,64.72
2018-11-05T00:42:50.336Z,64.21
2018-11-05T00:43:50.327Z,64.90
2018-11-05T00:44:50.334Z,64.72
2018-11-05T00:45:50.436Z,64.53
2018-11-05T00:46:50.330Z,64.34
2018-11-05T00:47:50.347Z,64.72
2018-11-05T00:48:50.351Z,64.11
2018-11-05T00:49:50.326Z,64.21
2018-11-05T00:50:50.339Z,63.54
2018-11-05T00:51:50.338Z,63.35
2018-11-05T00:52:50.318Z,63.45
2018-11-05T00:53:50.330Z,63.64
2018-11-05T00:54:50.326Z,63.73
2018-11-05T00:55:50.329Z,63.17
2018-11-05T00:56:50.330Z,63.35
2018-11-05T00:57:50.328Z,62.97
2018-11-05T00:58:50.342Z,62.97
2018-11-05T00:59:50.361Z,61.83
2018-11-05T01:00:50.334Z,62.30
2018-11-05T01:01:50.333Z,62.21
2018-11-05T01:02:50.347Z,61.83
2018-11-05T01:03:50.316Z,61.74
2018-11-05T01:04:50.360Z,62.40
2018-11-05T01:05:50.336Z,62.40
2018-11-05T01:06:50.310Z,62.02
2018-11-05T01:07:50.369Z,61.93
2018-11-05T01:08:50.327Z,61.64
2018-11-05T01:09:50.318Z,61.26
2018-11-05T01:10:50.316Z,61.26
2018-11-05T01:11:50.324Z,61.07
2018-11-05T01:12:50.322Z,60.88
2018-11-05T01:13:50.311Z,61.07
2018-11-05T01:14:50.309Z,60.78
2018-11-05T01:15:50.312Z,60.60
2018-11-05T01:16:50.318Z,60.60
2018-11-05T01:17:50.310Z,60.60
2018-11-05T01:18:50.332Z,60.69
2018-11-05T01:19:50.303Z,60.78
2018-11-05T01:20:50.305Z,60.69
2018-11-05T01:21:50.304Z,60.60
2018-11-05T01:22:50.309Z,60.78
2018-11-05T01:23:50.311Z,61.16
2018-11-05T01:24:50.310Z,60.78
2018-11-05T01:25:50.298Z,60.50
2018-11-05T01:26:50.300Z,60.50
2018-11-05T01:27:50.311Z,60.50
2018-11-05T01:28:50.312Z,60.69
2018-11-05T01:29:50.303Z,60.60
2018-11-05T01:30:50.315Z,60.50
2018-11-05T01:31:50.320Z,60.21
2018-11-05T01:32:50.334Z,59.45
2018-11-05T01:33:50.338Z,59.64
2018-11-05T01:34:50.303Z,59.83
2018-11-05T01:35:50.350Z,59.55
2018-11-05T01:36:50.307Z,59.64
2018-11-05T01:37:50.309Z,60.02
2018-11-05T01:38:50.311Z,59.27
2018-11-05T01:39:50.297Z,58.88
2018-11-05T01:40:50.302Z,58.69
2018-11-05T01:41:50.300Z,58.31
2018-11-05T01:42:50.289Z,58.12
2018-11-05T01:43:50.299Z,57.17
2018-11-05T01:44:50.306Z,55.93
2018-11-05T01:45:50.303Z,55.93
2018-11-05T01:46:50.291Z,55.83
2018-11-05T01:47:50.286Z,55.65
2018-11-05T01:48:50.289Z,55.55
2018-11-05T01:49:50.287Z,55.65
2018-11-05T01:50:50.282Z,55.65
2018-11-05T01:51:50.283Z,56.22
2018-11-05T01:52:50.305Z,56.31
2018-11-05T01:53:50.278Z,55.83
2018-11-05T01:54:50.299Z,55.55
2018-11-05T01:55:50.311Z,55.55
2018-11-05T01:56:50.299Z,55.83
2018-11-05T01:57:50.289Z,55.55
2018-11-05T01:58:50.304Z,55.46
2018-11-05T01:59:52.902Z,55.55
2018-11-05T02:00:50.281Z,56.03
2018-11-05T02:01:50.284Z,55.55
2018-11-05T02:02:50.289Z,55.74
2018-11-05T02:03:50.282Z,55.83
2018-11-05T02:04:50.307Z,55.93
2018-11-05T02:05:50.291Z,56.03
2018-11-05T02:06:50.271Z,55.83
2018-11-05T02:07:50.276Z,56.03
2018-11-05T02:08:50.293Z,55.65
2018-11-05T02:09:50.287Z,55.55
2018-11-05T02:10:50.287Z,55.93
2018-11-05T02:11:50.292Z,55.36
2018-11-05T02:12:50.295Z,55.46
2018-11-05T02:13:50.275Z,55.17
2018-11-05T02:14:50.287Z,54.60
2018-11-05T02:15:50.317Z,54.98
2018-11-05T02:16:50.273Z,54.79
2018-11-05T02:17:50.272Z,55.27
2018-11-05T02:18:50.294Z,55.55
2018-11-05T02:19:50.269Z,55.46
2018-11-05T02:20:50.279Z,55.55
2018-11-05T02:21:50.288Z,55.65
2018-11-05T02:22:50.266Z,55.27
2018-11-05T02:23:50.264Z,55.83
2018-11-05T02:24:50.260Z,55.27
2018-11-05T02:25:50.267Z,55.36
2018-11-05T02:26:50.267Z,55.46
2018-11-05T02:27:50.269Z,55.46
2018-11-05T02:28:50.273Z,55.55
2018-11-05T02:29:50.264Z,55.36
2018-11-05T02:30:50.279Z,56.03
2018-11-05T02:31:50.264Z,55.46
2018-11-05T02:32:50.256Z,55.65
2018-11-05T02:33:50.270Z,55.24
2018-11-05T02:34:50.252Z,54.89
2018-11-05T02:35:50.271Z,55.08
2018-11-05T02:36:50.259Z,54.89
2018-11-05T02:37:50.260Z,54.89
2018-11-05T02:38:50.307Z,55.27
2018-11-05T02:39:50.268Z,55.62
2018-11-05T02:40:50.257Z,55.43
2018-11-05T02:41:50.263Z,55.36
2018-11-05T02:42:50.285Z,55.05
2018-11-05T02:43:50.274Z,55.05
2018-11-05T02:44:50.252Z,55.52
2018-11-05T02:45:50.262Z,54.67
2018-11-05T02:46:50.250Z,54.29
2018-11-05T02:47:50.269Z,54.86
2018-11-05T02:48:50.251Z,54.96
2018-11-05T02:49:50.253Z,54.77
2018-11-05T02:50:50.257Z,54.38
2018-11-05T02:51:50.244Z,54.19
2018-11-05T02:52:50.247Z,54.00
2018-11-05T02:53:50.263Z,53.43
2018-11-05T02:54:50.243Z,52.58
2018-11-05T02:55:50.254Z,52.67
2018-11-05T02:56:50.248Z,52.58
2018-11-05T02:57:50.261Z,51.91
2018-11-05T02:58:50.249Z,52.10
2018-11-05T02:59:50.273Z,52.29
2018-11-05T03:00:50.237Z,51.72
2018-11-05T03:01:50.263Z,51.34
2018-11-05T03:02:50.253Z,51.15
2018-11-05T03:03:50.243Z,51.25
2018-11-05T03:04:50.246Z,50.77
2018-11-05T03:05:50.257Z,50.87
2018-11-05T03:06:50.260Z,50.68
2018-11-05T03:07:50.258Z,50.29
2018-11-05T03:08:50.252Z,50.39
2018-11-05T03:09:50.234Z,50.29
2018-11-05T03:10:50.238Z,49.54
2018-11-05T03:11:50.233Z,49.82
2018-11-05T03:12:50.241Z,49.44
2018-11-05T03:13:50.234Z,48.96
2018-11-05T03:14:50.246Z,48.96
2018-11-05T03:15:50.252Z,48.96
2018-11-05T03:16:50.241Z,49.15
2018-11-05T03:17:50.229Z,49.44
2018-11-05T03:18:50.237Z,49.44
2018-11-05T03:19:50.248Z,49.63
2018-11-05T03:20:50.247Z,49.44
2018-11-05T03:21:50.235Z,49.73
2018-11-05T03:22:50.240Z,49.82
2018-11-05T03:23:50.238Z,49.73
2018-11-05T03:24:50.234Z,49.54
2018-11-05T03:25:50.256Z,48.96
2018-11-05T03:26:50.242Z,49.06
2018-11-05T03:27:50.223Z,48.68
2018-11-05T03:28:50.217Z,48.39
2018-11-05T03:29:50.229Z,48.27
2018-11-05T03:30:50.236Z,47.89
2018-11-05T03:31:50.226Z,47.61
2018-11-05T03:32:50.218Z,46.88
2018-11-05T03:33:50.235Z,46.30
2018-11-05T03:34:50.215Z,45.90
2018-11-05T03:35:50.304Z,46.00
2018-11-05T03:36:50.224Z,45.54
2018-11-05T03:37:50.223Z,45.83
2018-11-05T03:38:50.207Z,45.54
2018-11-05T03:39:50.213Z,45.23
2018-11-05T03:40:50.245Z,45.42
2018-11-05T03:41:50.221Z,44.85
2018-11-05T03:42:50.244Z,44.76
2018-11-05T03:43:50.224Z,44.67
2018-11-05T03:44:50.225Z,44.38
2018-11-05T03:45:50.208Z,44.47
2018-11-05T03:46:50.222Z,44.49
2018-11-05T03:47:50.205Z,44.47
2018-11-05T03:48:50.211Z,44.57
2018-11-05T03:49:50.223Z,44.09
2018-11-05T03:50:50.213Z,44.28
2018-11-05T03:51:50.224Z,44.49
2018-11-05T03:52:50.205Z,44.19
2018-11-05T03:53:50.219Z,44.09
2018-11-05T03:54:50.224Z,44.76
2018-11-05T03:55:50.204Z,44.85
2018-11-05T03:56:50.316Z,44.47
2018-11-05T03:57:50.220Z,44.67
2018-11-05T03:58:50.209Z,44.67
2018-11-05T03:59:50.212Z,45.04
2018-11-05T04:00:50.205Z,44.67
2018-11-05T04:01:50.193Z,44.57
2018-11-05T04:02:50.196Z,44.67
2018-11-05T04:03:50.201Z,44.76
2018-11-05T04:04:50.207Z,44.09
2018-11-05T04:05:50.214Z,44.47
2018-11-05T04:06:50.208Z,44.28
2018-11-05T04:07:50.209Z,44.85
2018-11-05T04:08:50.195Z,44.38
2018-11-05T04:09:50.204Z,44.19
2018-11-05T04:10:50.207Z,44.28
2018-11-05T04:11:50.192Z,44.00
2018-11-05T04:12:50.193Z,44.28
2018-11-05T04:13:50.185Z,43.90
2018-11-05T04:14:50.196Z,43.71
2018-11-05T04:15:50.223Z,43.54
2018-11-05T04:16:50.190Z,43.24
2018-11-05T04:17:50.190Z,42.86
2018-11-05T04:18:50.193Z,42.67
2018-11-05T04:19:50.228Z,42.67
2018-11-05T04:20:50.192Z,42.47
2018-11-05T04:21:50.212Z,42.10
2018-11-05T04:22:50.222Z,42.12
2018-11-05T04:23:50.192Z,42.10
2018-11-05T04:24:50.178Z,42.12
2018-11-05T04:25:50.187Z,41.83
2018-11-05T04:26:50.174Z,42.00
2018-11-05T04:27:50.236Z,41.64
2018-11-05T04:28:50.194Z,41.55
2018-11-05T04:29:50.175Z,41.36
2018-11-05T04:30:50.183Z,41.17
2018-11-05T04:31:50.178Z,41.07
2018-11-05T04:32:50.209Z,40.88
2018-11-05T04:33:50.187Z,40.98
2018-11-05T04:34:50.187Z,40.88
2018-11-05T04:35:50.181Z,41.17
2018-11-05T04:36:50.186Z,41.26
2018-11-05T04:37:50.210Z,41.07
2018-11-05T04:38:50.165Z,41.26
2018-11-05T04:39:50.181Z,41.17
2018-11-05T04:40:50.169Z,40.88
2018-11-05T04:41:50.174Z,40.59
2018-11-05T04:42:50.173Z,40.79
2018-11-05T04:43:50.185Z,40.69
2018-11-05T04:44:50.175Z,40.31
2018-11-05T04:45:50.182Z,40.22
2018-11-05T04:46:50.167Z,40.12
2018-11-05T04:47:51.946Z,39.93
2018-11-05T04:48:50.184Z,40.22
2018-11-05T04:49:50.180Z,40.03
2018-11-05T04:50:50.182Z,39.84
2018-11-05T04:51:50.168Z,39.55
2018-11-05T04:52:50.160Z,39.55
2018-11-05T04:53:50.159Z,39.26
2018-11-05T04:54:50.161Z,39.26
2018-11-05T04:55:50.175Z,39.45
2018-11-05T04:56:50.156Z,39.26
2018-11-05T04:57:50.172Z,39.65
2018-11-05T04:58:52.925Z,39.36
2018-11-05T04:59:50.163Z,39.17
2018-11-05T05:00:50.169Z,39.36
2018-11-05T05:01:50.168Z,39.07
2018-11-05T05:02:50.175Z,38.70
2018-11-05T05:03:50.185Z,38.51
2018-11-05T05:04:50.173Z,38.60
2018-11-05T05:05:50.173Z,38.31
2018-11-05T05:06:50.156Z,38.41
2018-11-05T05:07:50.147Z,37.93
2018-11-05T05:08:50.160Z,37.55
2018-11-05T05:09:50.152Z,37.46
2018-11-05T05:10:50.160Z,37.27
2018-11-05T05:11:50.155Z,37.18
2018-11-05T05:12:50.159Z,37.55
2018-11-05T05:13:50.167Z,37.46
2018-11-05T05:14:50.149Z,36.98
2018-11-05T05:15:50.162Z,37.93
2018-11-05T05:16:50.171Z,38.03
2018-11-05T05:17:50.146Z,38.03
2018-11-05T05:18:50.160Z,37.73
2018-11-05T05:19:50.188Z,37.92
2018-11-05T05:20:50.165Z,38.58
2018-11-05T05:21:50.142Z,38.58
2018-11-05T05:22:50.314Z,38.39
2018-11-05T05:23:50.152Z,37.74
2018-11-05T05:24:50.137Z,38.10
2018-11-05T05:25:50.127Z,38.01
2018-11-05T05:26:50.149Z,37.54
2018-11-05T05:27:50.139Z,38.01
2018-11-05T05:28:50.157Z,37.92
2018-11-05T05:29:50.138Z,37.82
2018-11-05T05:30:50.132Z,37.06
2018-11-05T05:31:50.133Z,37.25
2018-11-05T05:32:50.138Z,36.77
2018-11-05T05:33:50.144Z,37.25
2018-11-05T05:34:50.873Z,36.49
2018-11-05T05:35:50.124Z,37.06
2018-11-05T05:36:50.148Z,36.21
2018-11-05T05:37:50.127Z,36.77
2018-11-05T05:38:50.126Z,36.58
2018-11-05T05:39:50.139Z,36.30
2018-11-05T05:40:50.161Z,36.21
2018-11-05T05:41:50.125Z,36.49
2018-11-05T05:42:50.123Z,35.83
2018-11-05T05:43:50.138Z,35.83
2018-11-05T05:44:50.128Z,35.63
2018-11-05T05:45:50.137Z,35.16
2018-11-05T05:46:50.130Z,35.06
2018-11-05T05:47:50.119Z,35.06
2018-11-05T05:48:50.111Z,34.61
2018-11-05T05:49:50.114Z,34.23
2018-11-05T05:50:50.123Z,33.94
2018-11-05T05:51:50.126Z,34.02
2018-11-05T05:52:50.124Z,33.83
2018-11-05T05:53:50.128Z,33.65
2018-11-05T05:54:50.103Z,33.37
2018-11-05T05:55:50.130Z,33.56
2018-11-05T05:56:50.118Z,33.28
2018-11-05T05:57:50.105Z,33.28
2018-11-05T05:58:50.113Z,32.99
2018-11-05T05:59:50.152Z,33.18
2018-11-05T06:00:50.109Z,32.90
2018-11-05T06:01:50.114Z,32.99
2018-11-05T06:02:50.138Z,32.80
2018-11-05T06:03:50.106Z,32.80
2018-11-05T06:04:50.112Z,32.42
2018-11-05T06:05:50.159Z,32.32
2018-11-05T06:06:50.129Z,32.42
2018-11-05T06:07:50.115Z,32.04
2018-11-05T06:08:50.118Z,31.95
2018-11-05T06:09:50.157Z,31.76
2018-11-05T06:10:50.119Z,32.14
2018-11-05T06:11:50.118Z,32.61
2018-11-05T06:12:50.112Z,32.90
2018-11-05T06:13:50.104Z,32.90
2018-11-05T06:14:50.095Z,32.99
2018-11-05T06:15:50.107Z,33.28
2018-11-05T06:16:50.124Z,33.18
2018-11-05T06:17:50.093Z,32.80
2018-11-05T06:18:50.095Z,33.37
2018-11-05T06:19:50.105Z,33.37
2018-11-05T06:20:50.123Z,33.28
2018-11-05T06:21:50.158Z,33.56
2018-11-05T06:22:50.100Z,33.96
2018-11-05T06:23:50.118Z,33.77
2018-11-05T06:24:50.095Z,33.86
2018-11-05T06:25:50.096Z,34.05
2018-11-05T06:26:50.105Z,34.24
2018-11-05T06:27:50.115Z,34.63
2018-11-05T06:28:50.107Z,35.00
2018-11-05T06:29:50.113Z,35.10
2018-11-05T06:30:50.085Z,35.86
2018-11-05T06:31:50.100Z,35.10
2018-11-05T06:32:50.110Z,35.58
2018-11-05T06:33:50.084Z,35.48
2018-11-05T06:34:50.088Z,35.77
2018-11-05T06:35:50.109Z,36.15
2018-11-05T06:36:50.098Z,36.43
2018-11-05T06:37:50.097Z,36.24
2018-11-05T06:38:50.082Z,36.43
2018-11-05T06:39:50.088Z,36.91
2018-11-05T06:40:50.100Z,38.14
2018-11-05T06:41:50.312Z,38.90
2018-11-05T06:42:50.076Z,39.67
2018-11-05T06:43:50.083Z,40.35
2018-11-05T06:44:50.103Z,41.40
2018-11-05T06:45:50.110Z,42.07
2018-11-05T06:46:50.091Z,42.35
2018-11-05T06:47:50.084Z,42.83
2018-11-05T06:48:50.155Z,43.30
2018-11-05T06:49:50.090Z,44.35
2018-11-05T06:50:50.086Z,44.73
2018-11-05T06:51:50.079Z,45.97
2018-11-05T06:52:50.173Z,45.97
2018-11-05T06:53:50.098Z,46.44
2018-11-05T06:54:50.085Z,47.68
2018-11-05T06:55:50.085Z,47.78
2018-11-05T06:56:50.091Z,47.97
2018-11-05T06:57:50.202Z,48.63
2018-11-05T06:58:50.076Z,49.68
2018-11-05T06:59:50.082Z,50.35
2018-11-05T07:00:50.070Z,50.44
2018-11-05T07:01:50.079Z,50.25
2018-11-05T07:02:50.086Z,49.96
2018-11-05T07:03:50.085Z,49.87
2018-11-05T07:04:50.070Z,50.35
2018-11-05T07:05:50.158Z,50.73
2018-11-05T07:06:50.081Z,50.92
2018-11-05T07:07:50.070Z,51.30
2018-11-05T07:08:50.087Z,51.58
2018-11-05T07:09:50.108Z,52.25
2018-11-05T07:10:50.133Z,52.25
2018-11-05T07:11:50.110Z,52.44
2018-11-05T07:12:50.102Z,52.44
2018-11-05T07:13:50.072Z,52.92
2018-11-05T07:14:50.075Z,53.32
2018-11-05T07:15:50.075Z,53.49
2018-11-05T07:16:50.079Z,53.77
2018-11-05T07:17:50.067Z,54.35
2018-11-05T07:18:50.156Z,54.37
2018-11-05T07:19:50.070Z,54.27
2018-11-05T07:20:50.077Z,54.08
2018-11-05T07:21:50.077Z,54.08
2018-11-05T07:22:50.106Z,55.10
2018-11-05T07:23:50.081Z,55.04
2018-11-05T07:24:50.082Z,55.13
2018-11-05T07:25:50.120Z,55.42
2018-11-05T07:26:50.199Z,55.70
2018-11-05T07:27:50.180Z,56.18
2018-11-05T07:28:50.072Z,56.56
2018-11-05T07:29:50.075Z,57.42
2018-11-05T07:30:50.387Z,57.23
2018-11-05T07:31:50.081Z,57.70
2018-11-05T07:32:50.076Z,57.32
2018-11-05T07:33:50.192Z,58.08
2018-11-05T07:34:50.062Z,58.08
2018-11-05T07:35:50.078Z,57.89
2018-11-05T07:36:50.066Z,58.47
2018-11-05T07:37:50.068Z,59.23
2018-11-05T07:38:50.148Z,59.32
2018-11-05T07:39:50.074Z,59.32
2018-11-05T07:40:50.077Z,60.08
2018-11-05T07:41:50.082Z,59.80
2018-11-05T07:42:50.090Z,59.80
2018-11-05T07:43:50.096Z,59.80
2018-11-05T07:44:50.090Z,59.42
2018-11-05T07:45:50.062Z,59.32
2018-11-05T07:46:50.063Z,59.03
2018-11-05T07:47:50.080Z,58.37
2018-11-05T07:48:50.073Z,59.51
2018-11-05T07:49:50.065Z,59.80
2018-11-05T07:50:50.159Z,60.27
2018-11-05T07:51:50.070Z,60.08
2018-11-05T07:52:50.082Z,60.08
2018-11-05T07:53:50.090Z,59.89
2018-11-05T07:54:50.073Z,60.27
2018-11-05T07:55:50.075Z,60.75
2018-11-05T07:56:50.073Z,60.85
2018-11-05T07:57:50.073Z,61.42
2018-11-05T07:58:50.083Z,61.22
2018-11-05T07:59:50.057Z,61.61
2018-11-05T08:00:50.065Z,62.12
2018-11-05T08:01:50.061Z,62.49
2018-11-05T08:02:50.149Z,63.13
2018-11-05T08:03:50.089Z,63.64
2018-11-05T08:04:50.077Z,63.45
2018-11-05T08:05:50.066Z,63.45
2018-11-05T08:06:50.067Z,64.02
2018-11-05T08:07:50.079Z,64.47
2018-11-05T08:08:50.091Z,64.87
2018-11-05T08:09:50.104Z,65.07
2018-11-05T08:10:50.080Z,64.97
2018-11-05T08:11:50.080Z,65.64
2018-11-05T08:12:50.092Z,65.83
2018-11-05T08:13:50.082Z,67.35
2018-11-05T08:14:50.064Z,67.83
2018-11-05T08:15:50.055Z,68.21
2018-11-05T08:16:50.076Z,68.69
2018-11-05T08:17:50.107Z,68.98
2018-11-05T08:18:50.072Z,69.26
2018-11-05T08:19:50.097Z,69.64
2018-11-05T08:20:50.090Z,70.21
2018-11-05T08:21:50.081Z,70.78
2018-11-05T08:22:50.090Z,70.97
2018-11-05T08:23:50.074Z,72.21
2018-11-05T08:24:50.059Z,72.31
2018-11-05T08:25:50.119Z,73.36
2018-11-05T08:26:50.077Z,73.83
2018-11-05T08:27:50.063Z,75.26
2018-11-05T08:28:50.099Z,76.21
2018-11-05T08:29:50.124Z,76.82
2018-11-05T08:30:50.063Z,77.69
2018-11-05T08:31:50.065Z,78.73
2018-11-05T08:32:50.072Z,79.30
2018-11-05T08:33:50.061Z,79.11
2018-11-05T08:34:50.072Z,80.44
2018-11-05T08:35:50.071Z,80.26
2018-11-05T08:36:50.074Z,80.73
2018-11-05T08:37:50.055Z,81.40
2018-11-05T08:38:50.056Z,82.92
2018-11-05T08:39:50.072Z,83.78
2018-11-05T08:40:50.074Z,83.88
2018-11-05T08:41:50.060Z,85.69
2018-11-05T08:42:50.096Z,88.50
2018-11-05T08:43:50.073Z,90.03
2018-11-05T08:44:50.092Z,92.03
2018-11-05T08:45:50.075Z,94.32
2018-11-05T08:46:50.100Z,94.41
2018-11-05T08:47:50.062Z,95.08
2018-11-05T08:48:50.074Z,95.17
2018-11-05T08:49:50.066Z,96.13
2018-11-05T08:50:50.152Z,98.03
2018-11-05T08:51:50.138Z,98.03
2018-11-05T08:52:50.072Z,98.03
2018-11-05T08:53:50.134Z,98.75
2018-11-05T08:54:50.085Z,99.71
2018-11-05T08:55:50.080Z,99.99
2018-11-05T08:56:50.065Z,99.99
2018-11-05T08:57:50.150Z,99.99
2018-11-05T08:58:50.087Z,99.99
2018-11-05T08:59:50.083Z,99.99
2018-11-05T09:00:50.158Z,99.99
2018-11-05T09:01:50.091Z,99.99
2018-11-05T09:02:50.074Z,99.99
2018-11-05T09:03:50.068Z,99.99
2018-11-05T09:04:50.220Z,99.99
2018-11-05T09:05:50.084Z,99.99
2018-11-05T09:06:50.072Z,99.99
2018-11-05T09:07:50.073Z,99.99
2018-11-05T09:08:50.150Z,99.99
2018-11-05T09:09:50.118Z,99.99
2018-11-05T09:10:50.483Z,99.99
2018-11-05T09:11:50.082Z,99.99
2018-11-05T09:12:50.085Z,99.99
2018-11-05T09:13:50.083Z,99.99
2018-11-05T09:14:50.099Z,99.99
2018-11-05T09:15:50.109Z,99.99
2018-11-05T09:16:50.094Z,99.99
2018-11-05T09:17:50.098Z,99.99
2018-11-05T09:18:50.097Z,99.75
2018-11-05T09:19:50.107Z,99.66
2018-11-05T09:20:50.168Z,99.99
2018-11-05T09:21:50.081Z,99.85
2018-11-05T09:22:50.118Z,99.99
2018-11-05T09:23:50.090Z,99.99
2018-11-05T09:24:50.100Z,99.99
2018-11-05T09:25:50.104Z,99.99
2018-11-05T09:26:50.092Z,99.99
2018-11-05T09:27:50.128Z,99.99
2018-11-05T09:28:50.131Z,99.99
2018-11-05T09:29:50.098Z,99.99
2018-11-05T09:30:50.106Z,99.99
2018-11-05T09:31:50.120Z,99.99
2018-11-05T09:32:50.115Z,99.99
2018-11-05T09:33:50.102Z,99.99
2018-11-05T09:34:50.110Z,99.99
2018-11-05T09:35:50.105Z,99.99
2018-11-05T09:36:50.131Z,99.99
2018-11-05T09:37:50.125Z,99.99
2018-11-05T09:38:50.091Z,99.99
2018-11-05T09:39:50.121Z,99.99
2018-11-05T09:40:50.092Z,99.99
2018-11-05T09:41:50.090Z,99.99
2018-11-05T09:42:50.196Z,99.99
2018-11-05T09:43:50.102Z,99.99
2018-11-05T09:44:50.105Z,99.99
2018-11-05T09:45:50.112Z,99.99
2018-11-05T09:46:50.132Z,99.99
2018-11-05T09:47:50.102Z,99.99
2018-11-05T09:48:50.113Z,99.99
2018-11-05T09:49:50.104Z,99.99
2018-11-05T09:50:50.180Z,99.99
2018-11-05T09:51:50.133Z,99.99
2018-11-05T09:52:50.112Z,99.99
2018-11-05T09:53:50.115Z,99.99
2018-11-05T09:54:50.147Z,99.99
2018-11-05T09:55:50.126Z,99.99
2018-11-05T09:56:52.012Z,99.99
2018-11-05T09:57:50.110Z,99.99
2018-11-05T09:58:50.202Z,99.99
2018-11-05T09:59:50.201Z,99.99
2018-11-05T10:00:50.307Z,99.99
2018-11-05T10:01:50.970Z,99.99
2018-11-05T10:02:50.251Z,99.99
2018-11-05T10:03:50.156Z,99.99
2018-11-05T10:04:50.487Z,99.99
2018-11-05T10:05:50.112Z,99.99
2018-11-05T10:06:50.117Z,99.99
2018-11-05T10:07:50.124Z,99.99
2018-11-05T10:08:50.122Z,99.99
2018-11-05T10:09:50.227Z,99.99
2018-11-05T10:10:50.139Z,99.99
2018-11-05T10:11:50.170Z,99.99
2018-11-05T10:12:50.137Z,99.99
2018-11-05T10:13:50.119Z,99.99
2018-11-05T10:14:50.163Z,99.99
2018-11-05T10:15:50.130Z,99.99
2018-11-05T10:16:50.151Z,99.99
2018-11-05T10:17:50.116Z,99.99
2018-11-05T10:18:50.118Z,99.99
2018-11-05T10:19:50.139Z,99.99
2018-11-05T10:20:50.185Z,99.99
2018-11-05T10:21:50.140Z,99.99
2018-11-05T10:22:50.139Z,99.99
2018-11-05T10:23:50.145Z,99.99
2018-11-05T10:24:50.311Z,99.99
2018-11-05T10:25:50.143Z,99.99
2018-11-05T10:26:50.139Z,99.99
2018-11-05T10:27:50.186Z,99.99
2018-11-05T10:28:50.220Z,99.99
2018-11-05T10:29:50.160Z,99.99
2018-11-05T10:30:50.135Z,99.99
2018-11-05T10:31:50.139Z,99.99
2018-11-05T10:32:50.185Z,99.99
2018-11-05T10:33:50.194Z,99.99
2018-11-05T10:34:50.129Z,99.99
2018-11-05T10:35:50.137Z,99.99
2018-11-05T10:36:50.172Z,99.99
2018-11-05T10:37:50.184Z,99.99
2018-11-05T10:38:50.143Z,99.99
2018-11-05T10:39:50.150Z,99.99
2018-11-05T10:40:50.153Z,99.99
2018-11-05T10:41:50.151Z,99.99
2018-11-05T10:42:50.177Z,99.99
2018-11-05T10:43:50.144Z,99.99
2018-11-05T10:44:50.174Z,99.99
2018-11-05T10:45:50.161Z,99.99
2018-11-05T10:46:50.150Z,99.99
2018-11-05T10:47:50.191Z,99.99
2018-11-05T10:48:50.169Z,99.99
2018-11-05T10:49:50.176Z,99.99
2018-11-05T10:50:50.161Z,99.99
2018-11-05T10:51:50.284Z,99.99
2018-11-05T10:52:50.149Z,99.99
2018-11-05T10:53:50.164Z,99.99
2018-11-05T10:54:50.153Z,99.99
2018-11-05T10:55:50.174Z,99.99
2018-11-05T10:56:50.191Z,99.99
2018-11-05T10:57:50.149Z,99.99
2018-11-05T10:58:50.160Z,99.99
2018-11-05T10:59:50.157Z,99.99
2018-11-05T11:00:50.160Z,99.99
2018-11-05T11:01:50.189Z,99.99
2018-11-05T11:02:50.199Z,99.99
2018-11-05T11:03:50.321Z,99.99
2018-11-05T11:04:50.187Z,99.99
2018-11-05T11:05:50.202Z,99.99
2018-11-05T11:06:50.203Z,99.99
2018-11-05T11:07:50.171Z,99.99
2018-11-05T11:08:50.196Z,99.99
2018-11-05T11:09:50.159Z,99.99
2018-11-05T11:10:50.172Z,99.99
2018-11-05T11:11:50.179Z,99.99
2018-11-05T11:12:50.169Z,99.99
2018-11-05T11:13:50.180Z,99.99
2018-11-05T11:14:50.163Z,99.99
2018-11-05T11:15:50.184Z,99.99
2018-11-05T11:16:50.166Z,99.99
2018-11-05T11:17:50.200Z,99.99
2018-11-05T11:18:50.186Z,99.99
2018-11-05T11:19:50.194Z,99.99
2018-11-05T11:20:50.216Z,99.99
2018-11-05T11:21:50.237Z,99.99
2018-11-05T11:22:50.185Z,99.99
2018-11-05T11:23:50.171Z,99.99
2018-11-05T11:24:50.177Z,99.99
2018-11-05T11:25:50.209Z,99.99
2018-11-05T11:26:50.181Z,99.99
2018-11-05T11:27:50.370Z,99.99
2018-11-05T11:28:50.319Z,99.99
2018-11-05T11:29:50.200Z,99.99
2018-11-05T11:30:50.196Z,99.99
2018-11-05T11:31:50.185Z,99.99
2018-11-05T11:32:50.199Z,99.99
2018-11-05T11:33:50.193Z,99.99
2018-11-05T11:34:50.242Z,99.99
2018-11-05T11:35:50.242Z,99.99
2018-11-05T11:36:50.199Z,99.99
2018-11-05T11:37:50.204Z,99.99
2018-11-05T11:38:50.210Z,99.99
2018-11-05T11:39:50.211Z,99.99
2018-11-05T11:40:50.230Z,99.99
2018-11-05T11:41:50.210Z,99.99
2018-11-05T11:42:50.215Z,99.99
2018-11-05T11:43:50.210Z,99.99
2018-11-05T11:44:50.248Z,99.99
2018-11-05T11:45:50.218Z,99.99
2018-11-05T11:46:50.218Z,99.99
2018-11-05T11:47:50.223Z,99.99
2018-11-05T11:48:50.220Z,99.99
2018-11-05T11:49:50.206Z,99.99
2018-11-05T11:50:50.213Z,99.99
2018-11-05T11:51:50.204Z,99.99
2018-11-05T11:52:50.369Z,99.99
2018-11-05T11:53:50.233Z,99.99
2018-11-05T11:54:50.283Z,99.99
2018-11-05T11:55:50.226Z,99.99
2018-11-05T11:56:50.287Z,99.99
2018-11-05T11:57:50.227Z,99.99
2018-11-05T11:58:50.217Z,99.99
2018-11-05T11:59:50.241Z,99.99
2018-11-05T12:00:50.227Z,99.99
2018-11-05T12:01:50.221Z,99.99
2018-11-05T12:02:50.227Z,99.99
2018-11-05T12:03:50.219Z,99.99
2018-11-05T12:04:50.320Z,99.99
2018-11-05T12:05:50.241Z,99.99
2018-11-05T12:06:50.219Z,99.99
2018-11-05T12:07:50.228Z,99.99
2018-11-05T12:08:50.232Z,99.99
2018-11-05T12:09:50.269Z,99.99
2018-11-05T12:10:50.240Z,99.99
2018-11-05T12:11:50.233Z,99.99
2018-11-05T12:12:50.235Z,99.99
2018-11-05T12:13:50.358Z,99.99
2018-11-05T12:14:50.449Z,99.99
2018-11-05T12:15:50.241Z,99.99
2018-11-05T12:16:50.255Z,99.99
2018-11-05T12:17:50.256Z,99.99
2018-11-05T12:18:50.263Z,99.99
2018-11-05T12:19:50.252Z,99.99
2018-11-05T12:20:50.243Z,99.99
2018-11-05T12:21:50.251Z,99.99
2018-11-05T12:22:50.251Z,99.99
2018-11-05T12:23:50.249Z,99.99
2018-11-05T12:24:50.300Z,99.99
2018-11-05T12:25:50.247Z,99.99
2018-11-05T12:26:50.252Z,99.99
2018-11-05T12:27:50.304Z,99.99
2018-11-05T12:28:50.268Z,99.99
2018-11-05T12:29:50.263Z,99.99
2018-11-05T12:30:50.249Z,99.99
2018-11-05T12:31:50.250Z,99.99
2018-11-05T12:32:50.280Z,99.99
2018-11-05T12:33:50.269Z,99.99
2018-11-05T12:34:50.254Z,99.99
2018-11-05T12:35:50.283Z,99.99
2018-11-05T12:36:50.269Z,99.99
2018-11-05T12:37:50.278Z,99.99
2018-11-05T12:38:50.461Z,99.99
2018-11-05T12:39:50.279Z,99.99
2018-11-05T12:40:50.336Z,99.99
2018-11-05T12:41:50.276Z,99.99
2018-11-05T12:42:50.269Z,99.99
2018-11-05T12:43:50.276Z,99.99
2018-11-05T12:44:50.342Z,99.99
2018-11-05T12:45:52.062Z,99.99
2018-11-05T12:46:50.274Z,99.99
2018-11-05T12:47:50.282Z,99.99
2018-11-05T12:48:50.292Z,99.99
2018-11-05T12:49:50.276Z,99.99
2018-11-05T12:50:50.297Z,99.99
2018-11-05T12:51:50.311Z,99.99
2018-11-05T12:52:50.286Z,99.99